sensor_id;sensor_type;location;lat;lon;timestamp;temperature;humidity
8832;DHT22;4452;50.756;4.472;2022-09-27T00:02:03;9.50;99.90
8832;DHT22;4452;50.756;4.472;2022-09-27T00:04:29;9.50;99.90
8832;DHT22;4452;50.756;4.472;2022-09-27T00:06:55;9.50;99.90
8832;DHT22;4452;50.756;4.472;2022-09-27T00:09:20;9.40;99.90
8832;DHT22;4452;50.756;4.472;2022-09-27T00:11:46;9.40;99.90
8832;DHT22;4452;50.756;4.472;2022-09-27T00:14:14;9.50;99.90
8832;DHT22;4452;50.756;4.472;2022-09-27T00:16:41;9.50;99.90
8832;DHT22;4452;50.756;4.472;2022-09-27T00:19:13;9.40;99.90
8832;DHT22;4452;50.756;4.472;2022-09-27T00:21:39;9.40;99.90
8832;DHT22;4452;50.756;4.472;2022-09-27T00:24:05;9.40;99.90
8832;DHT22;4452;50.756;4.472;2022-09-27T00:26:31;9.40;99.90
8832;DHT22;4452;50.756;4.472;2022-09-27T00:28:57;9.40;99.90
8832;DHT22;4452;50.756;4.472;2022-09-27T00:31:25;9.40;99.90
8832;DHT22;4452;50.756;4.472;2022-09-27T00:33:54;9.40;99.90
8832;DHT22;4452;50.756;4.472;2022-09-27T00:36:21;9.40;99.90
8832;DHT22;4452;50.756;4.472;2022-09-27T00:38:47;9.40;99.90
8832;DHT22;4452;50.756;4.472;2022-09-27T00:41:33;9.40;99.90
8832;DHT22;4452;50.756;4.472;2022-09-27T00:44:05;9.40;99.90
8832;DHT22;4452;50.756;4.472;2022-09-27T00:47:00;9.40;99.90
8832;DHT22;4452;50.756;4.472;2022-09-27T00:49:52;9.40;99.90
8832;DHT22;4452;50.756;4.472;2022-09-27T00:55:18;9.30;99.90
8832;DHT22;4452;50.756;4.472;2022-09-27T00:57:45;9.30;99.90
8832;DHT22;4452;50.756;4.472;2022-09-27T01:00:13;9.40;99.90
8832;DHT22;4452;50.756;4.472;2022-09-27T01:02:43;9.40;99.90
8832;DHT22;4452;50.756;4.472;2022-09-27T01:05:11;9.40;99.90
8832;DHT22;4452;50.756;4.472;2022-09-27T01:07:38;9.30;99.90
8832;DHT22;4452;50.756;4.472;2022-09-27T01:10:04;9.30;99.90
8832;DHT22;4452;50.756;4.472;2022-09-27T01:12:41;9.30;99.90
8832;DHT22;4452;50.756;4.472;2022-09-27T01:15:22;9.30;99.90
8832;DHT22;4452;50.756;4.472;2022-09-27T01:18:33;9.30;99.90
8832;DHT22;4452;50.756;4.472;2022-09-27T01:24:27;9.30;99.90
8832;DHT22;4452;50.756;4.472;2022-09-27T01:32:28;9.20;99.90
8832;DHT22;4452;50.756;4.472;2022-09-27T01:35:05;9.20;99.90
8832;DHT22;4452;50.756;4.472;2022-09-27T01:37:50;9.10;99.90
8832;DHT22;4452;50.756;4.472;2022-09-27T01:40:24;9.10;99.90
8832;DHT22;4452;50.756;4.472;2022-09-27T01:42:58;9.10;99.90
8832;DHT22;4452;50.756;4.472;2022-09-27T01:45:37;9.10;99.90
8832;DHT22;4452;50.756;4.472;2022-09-27T01:48:18;9.10;99.90
8832;DHT22;4452;50.756;4.472;2022-09-27T01:50:54;9.10;99.90
8832;DHT22;4452;50.756;4.472;2022-09-27T01:53:26;9.00;99.90
8832;DHT22;4452;50.756;4.472;2022-09-27T01:55:54;9.00;99.90
8832;DHT22;4452;50.756;4.472;2022-09-27T01:58:41;8.90;99.90
8832;DHT22;4452;50.756;4.472;2022-09-27T02:01:10;8.90;99.90
8832;DHT22;4452;50.756;4.472;2022-09-27T02:03:40;8.90;99.90
8832;DHT22;4452;50.756;4.472;2022-09-27T02:06:14;8.90;99.90
8832;DHT22;4452;50.756;4.472;2022-09-27T02:08:58;8.90;99.90
8832;DHT22;4452;50.756;4.472;2022-09-27T02:11:26;8.90;99.90
8832;DHT22;4452;50.756;4.472;2022-09-27T02:14:07;8.90;99.90
8832;DHT22;4452;50.756;4.472;2022-09-27T02:16:57;8.80;99.90
8832;DHT22;4452;50.756;4.472;2022-09-27T02:25:04;8.80;99.90
8832;DHT22;4452;50.756;4.472;2022-09-27T02:27:46;8.80;99.90
8832;DHT22;4452;50.756;4.472;2022-09-27T02:30:15;8.80;99.90
8832;DHT22;4452;50.756;4.472;2022-09-27T02:32:42;8.80;99.90
8832;DHT22;4452;50.756;4.472;2022-09-27T02:35:27;8.80;99.90
8832;DHT22;4452;50.756;4.472;2022-09-27T02:37:55;8.80;99.90
8832;DHT22;4452;50.756;4.472;2022-09-27T02:40:22;8.80;99.90
8832;DHT22;4452;50.756;4.472;2022-09-27T02:42:48;8.80;99.90
8832;DHT22;4452;50.756;4.472;2022-09-27T02:45:15;8.80;99.90
8832;DHT22;4452;50.756;4.472;2022-09-27T02:47:58;8.80;99.90
8832;DHT22;4452;50.756;4.472;2022-09-27T02:50:48;8.80;99.90
8832;DHT22;4452;50.756;4.472;2022-09-27T02:56:27;8.80;99.90
8832;DHT22;4452;50.756;4.472;2022-09-27T02:59:09;8.80;99.90
8832;DHT22;4452;50.756;4.472;2022-09-27T03:04:29;8.70;99.90
8832;DHT22;4452;50.756;4.472;2022-09-27T03:06:57;8.70;99.90
8832;DHT22;4452;50.756;4.472;2022-09-27T03:09:28;8.70;99.90
8832;DHT22;4452;50.756;4.472;2022-09-27T03:11:54;8.70;99.90
8832;DHT22;4452;50.756;4.472;2022-09-27T03:14:20;8.70;99.90
8832;DHT22;4452;50.756;4.472;2022-09-27T03:16:45;8.80;99.90
8832;DHT22;4452;50.756;4.472;2022-09-27T03:19:11;8.70;99.90
8832;DHT22;4452;50.756;4.472;2022-09-27T03:21:37;8.80;99.90
8832;DHT22;4452;50.756;4.472;2022-09-27T03:24:02;8.80;99.90
8832;DHT22;4452;50.756;4.472;2022-09-27T03:26:28;8.80;99.90
8832;DHT22;4452;50.756;4.472;2022-09-27T03:28:54;8.80;99.90
8832;DHT22;4452;50.756;4.472;2022-09-27T03:31:19;8.80;99.90
8832;DHT22;4452;50.756;4.472;2022-09-27T03:33:45;8.80;99.90
8832;DHT22;4452;50.756;4.472;2022-09-27T03:36:12;8.80;99.90
8832;DHT22;4452;50.756;4.472;2022-09-27T03:38:37;8.80;99.90
8832;DHT22;4452;50.756;4.472;2022-09-27T03:41:04;8.80;99.90
8832;DHT22;4452;50.756;4.472;2022-09-27T03:43:29;8.80;99.90
8832;DHT22;4452;50.756;4.472;2022-09-27T03:45:55;8.90;99.90
8832;DHT22;4452;50.756;4.472;2022-09-27T03:48:21;8.80;99.90
8832;DHT22;4452;50.756;4.472;2022-09-27T03:50:46;8.90;99.90
8832;DHT22;4452;50.756;4.472;2022-09-27T03:53:12;8.90;99.90
8832;DHT22;4452;50.756;4.472;2022-09-27T03:55:38;8.90;99.90
8832;DHT22;4452;50.756;4.472;2022-09-27T03:58:03;8.90;99.90
8832;DHT22;4452;50.756;4.472;2022-09-27T04:00:29;8.90;99.90
8832;DHT22;4452;50.756;4.472;2022-09-27T04:02:57;8.90;99.90
8832;DHT22;4452;50.756;4.472;2022-09-27T04:05:25;8.90;99.90
8832;DHT22;4452;50.756;4.472;2022-09-27T04:07:51;8.90;99.90
8832;DHT22;4452;50.756;4.472;2022-09-27T04:10:17;8.90;99.90
8832;DHT22;4452;50.756;4.472;2022-09-27T04:12:43;8.90;99.90
8832;DHT22;4452;50.756;4.472;2022-09-27T04:15:09;8.90;99.90
8832;DHT22;4452;50.756;4.472;2022-09-27T04:17:35;8.90;99.90
8832;DHT22;4452;50.756;4.472;2022-09-27T04:20:01;8.90;99.90
8832;DHT22;4452;50.756;4.472;2022-09-27T04:22:28;8.80;99.90
8832;DHT22;4452;50.756;4.472;2022-09-27T04:24:54;8.90;99.90
8832;DHT22;4452;50.756;4.472;2022-09-27T04:27:19;8.90;99.90
8832;DHT22;4452;50.756;4.472;2022-09-27T04:29:47;8.80;99.90
8832;DHT22;4452;50.756;4.472;2022-09-27T04:32:13;8.80;99.90
8832;DHT22;4452;50.756;4.472;2022-09-27T04:34:39;8.80;99.90
8832;DHT22;4452;50.756;4.472;2022-09-27T04:37:23;8.90;99.90
8832;DHT22;4452;50.756;4.472;2022-09-27T04:39:49;8.90;99.90
8832;DHT22;4452;50.756;4.472;2022-09-27T04:42:15;8.90;99.90
8832;DHT22;4452;50.756;4.472;2022-09-27T04:44:42;8.90;99.90
8832;DHT22;4452;50.756;4.472;2022-09-27T04:47:07;8.90;99.90
8832;DHT22;4452;50.756;4.472;2022-09-27T04:49:33;8.90;99.90
8832;DHT22;4452;50.756;4.472;2022-09-27T04:52:00;8.90;99.90
8832;DHT22;4452;50.756;4.472;2022-09-27T04:54:25;8.90;99.90
8832;DHT22;4452;50.756;4.472;2022-09-27T04:56:51;8.90;99.90
8832;DHT22;4452;50.756;4.472;2022-09-27T04:59:17;8.90;99.90
8832;DHT22;4452;50.756;4.472;2022-09-27T05:01:42;8.90;99.90
8832;DHT22;4452;50.756;4.472;2022-09-27T05:04:09;8.90;99.90
8832;DHT22;4452;50.756;4.472;2022-09-27T05:06:35;8.90;99.90
8832;DHT22;4452;50.756;4.472;2022-09-27T05:09:01;8.90;99.90
8832;DHT22;4452;50.756;4.472;2022-09-27T05:11:26;8.90;99.90
8832;DHT22;4452;50.756;4.472;2022-09-27T05:13:52;8.90;99.90
8832;DHT22;4452;50.756;4.472;2022-09-27T05:16:17;8.80;99.90
8832;DHT22;4452;50.756;4.472;2022-09-27T05:18:44;8.80;99.90
8832;DHT22;4452;50.756;4.472;2022-09-27T05:21:10;8.80;99.90
8832;DHT22;4452;50.756;4.472;2022-09-27T05:23:36;8.80;99.90
8832;DHT22;4452;50.756;4.472;2022-09-27T05:26:05;8.80;99.90
8832;DHT22;4452;50.756;4.472;2022-09-27T05:28:31;8.80;99.90
8832;DHT22;4452;50.756;4.472;2022-09-27T05:31:00;8.80;99.90
8832;DHT22;4452;50.756;4.472;2022-09-27T05:33:26;8.80;99.90
8832;DHT22;4452;50.756;4.472;2022-09-27T05:35:53;8.80;99.90
8832;DHT22;4452;50.756;4.472;2022-09-27T05:38:19;8.80;99.90
8832;DHT22;4452;50.756;4.472;2022-09-27T05:40:44;8.80;99.90
8832;DHT22;4452;50.756;4.472;2022-09-27T05:43:12;8.70;99.90
8832;DHT22;4452;50.756;4.472;2022-09-27T05:45:38;8.70;99.90
8832;DHT22;4452;50.756;4.472;2022-09-27T05:48:04;8.70;99.90
8832;DHT22;4452;50.756;4.472;2022-09-27T05:50:32;8.80;99.90
8832;DHT22;4452;50.756;4.472;2022-09-27T05:52:58;8.70;99.90
8832;DHT22;4452;50.756;4.472;2022-09-27T05:55:24;8.70;99.90
8832;DHT22;4452;50.756;4.472;2022-09-27T05:58:01;8.70;99.90
8832;DHT22;4452;50.756;4.472;2022-09-27T06:00:27;8.70;99.90
8832;DHT22;4452;50.756;4.472;2022-09-27T06:02:59;8.70;99.90
8832;DHT22;4452;50.756;4.472;2022-09-27T06:05:27;8.70;99.90
8832;DHT22;4452;50.756;4.472;2022-09-27T06:08:02;8.70;99.90
8832;DHT22;4452;50.756;4.472;2022-09-27T06:10:29;8.80;99.90
8832;DHT22;4452;50.756;4.472;2022-09-27T06:13:06;8.70;99.90
8832;DHT22;4452;50.756;4.472;2022-09-27T06:15:33;8.70;99.90
8832;DHT22;4452;50.756;4.472;2022-09-27T06:18:05;8.80;99.90
8832;DHT22;4452;50.756;4.472;2022-09-27T06:20:31;8.70;99.90
8832;DHT22;4452;50.756;4.472;2022-09-27T06:25:30;8.70;99.90
8832;DHT22;4452;50.756;4.472;2022-09-27T06:27:55;8.70;99.90
8832;DHT22;4452;50.756;4.472;2022-09-27T06:30:21;8.70;99.90
8832;DHT22;4452;50.756;4.472;2022-09-27T06:32:46;8.70;99.90
8832;DHT22;4452;50.756;4.472;2022-09-27T06:35:12;8.80;99.90
8832;DHT22;4452;50.756;4.472;2022-09-27T06:37:38;8.70;99.90
8832;DHT22;4452;50.756;4.472;2022-09-27T06:40:04;8.70;99.90
8832;DHT22;4452;50.756;4.472;2022-09-27T06:42:30;8.70;99.90
8832;DHT22;4452;50.756;4.472;2022-09-27T06:44:55;8.60;99.90
8832;DHT22;4452;50.756;4.472;2022-09-27T06:47:21;8.60;99.90
8832;DHT22;4452;50.756;4.472;2022-09-27T06:49:48;8.60;99.90
8832;DHT22;4452;50.756;4.472;2022-09-27T06:52:13;8.70;99.90
8832;DHT22;4452;50.756;4.472;2022-09-27T06:54:39;8.70;99.90
8832;DHT22;4452;50.756;4.472;2022-09-27T06:57:05;8.70;99.90
8832;DHT22;4452;50.756;4.472;2022-09-27T06:59:30;8.80;99.90
8832;DHT22;4452;50.756;4.472;2022-09-27T07:02:14;8.80;99.90
8832;DHT22;4452;50.756;4.472;2022-09-27T07:04:40;8.80;99.90
8832;DHT22;4452;50.756;4.472;2022-09-27T07:07:05;8.90;99.90
8832;DHT22;4452;50.756;4.472;2022-09-27T07:09:31;9.00;99.90
8832;DHT22;4452;50.756;4.472;2022-09-27T07:11:57;9.00;99.90
8832;DHT22;4452;50.756;4.472;2022-09-27T07:14:22;9.20;99.90
8832;DHT22;4452;50.756;4.472;2022-09-27T07:16:51;9.20;99.90
8832;DHT22;4452;50.756;4.472;2022-09-27T07:19:16;9.20;99.90
8832;DHT22;4452;50.756;4.472;2022-09-27T07:21:42;9.30;99.90
8832;DHT22;4452;50.756;4.472;2022-09-27T07:24:08;9.30;99.90
8832;DHT22;4452;50.756;4.472;2022-09-27T07:26:34;9.20;99.90
8832;DHT22;4452;50.756;4.472;2022-09-27T07:28:59;9.20;99.90
8832;DHT22;4452;50.756;4.472;2022-09-27T07:31:25;9.20;99.90
8832;DHT22;4452;50.756;4.472;2022-09-27T07:33:51;9.20;99.90
8832;DHT22;4452;50.756;4.472;2022-09-27T07:36:17;9.20;99.90
8832;DHT22;4452;50.756;4.472;2022-09-27T07:38:43;9.20;99.90
8832;DHT22;4452;50.756;4.472;2022-09-27T07:41:11;9.30;99.90
8832;DHT22;4452;50.756;4.472;2022-09-27T07:43:41;9.30;99.90
8832;DHT22;4452;50.756;4.472;2022-09-27T07:46:08;9.30;99.90
8832;DHT22;4452;50.756;4.472;2022-09-27T07:48:35;9.40;99.90
8832;DHT22;4452;50.756;4.472;2022-09-27T07:51:01;9.30;99.90
8832;DHT22;4452;50.756;4.472;2022-09-27T07:53:27;9.40;99.90
8832;DHT22;4452;50.756;4.472;2022-09-27T07:55:53;9.30;99.90
8832;DHT22;4452;50.756;4.472;2022-09-27T07:58:19;9.30;99.90
8832;DHT22;4452;50.756;4.472;2022-09-27T08:00:45;9.30;99.90
8832;DHT22;4452;50.756;4.472;2022-09-27T08:03:12;9.30;99.90
8832;DHT22;4452;50.756;4.472;2022-09-27T08:05:46;9.20;99.90
8832;DHT22;4452;50.756;4.472;2022-09-27T08:08:13;9.10;99.90
8832;DHT22;4452;50.756;4.472;2022-09-27T08:10:39;9.20;99.90
8832;DHT22;4452;50.756;4.472;2022-09-27T08:13:09;9.20;99.90
8832;DHT22;4452;50.756;4.472;2022-09-27T08:15:36;9.10;99.90
8832;DHT22;4452;50.756;4.472;2022-09-27T08:18:04;9.10;99.90
8832;DHT22;4452;50.756;4.472;2022-09-27T08:20:30;9.20;99.90
8832;DHT22;4452;50.756;4.472;2022-09-27T08:22:56;9.30;99.90
8832;DHT22;4452;50.756;4.472;2022-09-27T08:25:21;9.20;99.90
8832;DHT22;4452;50.756;4.472;2022-09-27T08:27:59;9.30;99.90
8832;DHT22;4452;50.756;4.472;2022-09-27T08:30:27;9.40;99.90
8832;DHT22;4452;50.756;4.472;2022-09-27T08:33:00;9.50;99.90
8832;DHT22;4452;50.756;4.472;2022-09-27T08:35:28;9.60;99.90
8832;DHT22;4452;50.756;4.472;2022-09-27T08:37:58;9.70;99.90
8832;DHT22;4452;50.756;4.472;2022-09-27T08:43:19;9.80;99.90
8832;DHT22;4452;50.756;4.472;2022-09-27T08:46:26;9.80;99.90
8832;DHT22;4452;50.756;4.472;2022-09-27T08:49:04;9.70;99.90
8832;DHT22;4452;50.756;4.472;2022-09-27T08:51:31;9.70;99.90
8832;DHT22;4452;50.756;4.472;2022-09-27T08:54:24;9.80;99.90
8832;DHT22;4452;50.756;4.472;2022-09-27T08:56:52;9.80;99.90
8832;DHT22;4452;50.756;4.472;2022-09-27T08:59:22;9.80;99.90
8832;DHT22;4452;50.756;4.472;2022-09-27T09:01:51;9.80;99.90
8832;DHT22;4452;50.756;4.472;2022-09-27T09:04:25;9.80;99.90
8832;DHT22;4452;50.756;4.472;2022-09-27T09:09:44;9.80;99.90
8832;DHT22;4452;50.756;4.472;2022-09-27T09:15:28;9.90;99.90
8832;DHT22;4452;50.756;4.472;2022-09-27T09:23:46;9.70;99.90
8832;DHT22;4452;50.756;4.472;2022-09-27T09:35:08;9.50;99.90
8832;DHT22;4452;50.756;4.472;2022-09-27T09:37:40;9.60;99.90
8832;DHT22;4452;50.756;4.472;2022-09-27T09:40:27;9.80;99.90
8832;DHT22;4452;50.756;4.472;2022-09-27T09:45:32;9.80;99.90
8832;DHT22;4452;50.756;4.472;2022-09-27T09:50:47;10.00;99.90
8832;DHT22;4452;50.756;4.472;2022-09-27T09:53:26;9.80;99.90
8832;DHT22;4452;50.756;4.472;2022-09-27T09:56:03;9.80;99.90
8832;DHT22;4452;50.756;4.472;2022-09-27T09:58:42;9.80;99.90
8832;DHT22;4452;50.756;4.472;2022-09-27T10:01:21;9.90;99.90
8832;DHT22;4452;50.756;4.472;2022-09-27T10:03:48;9.90;99.90
8832;DHT22;4452;50.756;4.472;2022-09-27T10:06:15;10.10;99.90
8832;DHT22;4452;50.756;4.472;2022-09-27T10:08:42;10.10;99.90
8832;DHT22;4452;50.756;4.472;2022-09-27T10:11:17;10.30;99.90
8832;DHT22;4452;50.756;4.472;2022-09-27T10:13:43;10.30;99.90
8832;DHT22;4452;50.756;4.472;2022-09-27T10:16:11;10.30;99.90
8832;DHT22;4452;50.756;4.472;2022-09-27T10:18:39;10.40;99.90
8832;DHT22;4452;50.756;4.472;2022-09-27T10:21:29;10.50;99.90
8832;DHT22;4452;50.756;4.472;2022-09-27T10:26:34;11.10;99.90
8832;DHT22;4452;50.756;4.472;2022-09-27T10:29:34;11.10;99.90
8832;DHT22;4452;50.756;4.472;2022-09-27T10:32:02;11.10;99.90
8832;DHT22;4452;50.756;4.472;2022-09-27T10:34:37;11.40;99.90
8832;DHT22;4452;50.756;4.472;2022-09-27T10:37:18;11.30;99.90
8832;DHT22;4452;50.756;4.472;2022-09-27T10:39:45;11.20;99.90
8832;DHT22;4452;50.756;4.472;2022-09-27T10:42:33;11.40;99.90
8832;DHT22;4452;50.756;4.472;2022-09-27T10:45:28;11.60;99.90
8832;DHT22;4452;50.756;4.472;2022-09-27T10:47:54;11.50;99.90
8832;DHT22;4452;50.756;4.472;2022-09-27T10:50:27;11.40;99.90
8832;DHT22;4452;50.756;4.472;2022-09-27T10:53:18;11.40;99.90
8832;DHT22;4452;50.756;4.472;2022-09-27T10:55:49;11.50;99.90
8832;DHT22;4452;50.756;4.472;2022-09-27T10:58:28;11.50;99.90
8832;DHT22;4452;50.756;4.472;2022-09-27T11:00:58;11.80;99.90
8832;DHT22;4452;50.756;4.472;2022-09-27T11:03:28;11.90;99.90
8832;DHT22;4452;50.756;4.472;2022-09-27T11:05:54;11.90;99.90
8832;DHT22;4452;50.756;4.472;2022-09-27T11:08:31;12.20;99.90
8832;DHT22;4452;50.756;4.472;2022-09-27T11:11:24;12.00;99.90
8832;DHT22;4452;50.756;4.472;2022-09-27T11:14:04;12.20;99.90
8832;DHT22;4452;50.756;4.472;2022-09-27T11:30:20;11.80;99.90
8832;DHT22;4452;50.756;4.472;2022-09-27T11:36:31;11.60;99.90
8832;DHT22;4452;50.756;4.472;2022-09-27T11:39:32;11.80;99.90
8832;DHT22;4452;50.756;4.472;2022-09-27T11:44:24;12.10;99.90
8832;DHT22;4452;50.756;4.472;2022-09-27T11:47:08;12.60;99.90
8832;DHT22;4452;50.756;4.472;2022-09-27T11:49:57;12.50;99.90
8832;DHT22;4452;50.756;4.472;2022-09-27T11:57:41;12.40;99.90
8832;DHT22;4452;50.756;4.472;2022-09-27T12:00:19;12.20;99.90
8832;DHT22;4452;50.756;4.472;2022-09-27T12:13:49;10.70;99.90
8832;DHT22;4452;50.756;4.472;2022-09-27T12:16:20;10.30;99.90
8832;DHT22;4452;50.756;4.472;2022-09-27T12:18:51;10.00;99.90
8832;DHT22;4452;50.756;4.472;2022-09-27T12:21:20;10.00;99.90
8832;DHT22;4452;50.756;4.472;2022-09-27T12:23:56;10.10;99.90
8832;DHT22;4452;50.756;4.472;2022-09-27T12:26:27;10.00;99.90
8832;DHT22;4452;50.756;4.472;2022-09-27T12:31:46;10.30;99.90
8832;DHT22;4452;50.756;4.472;2022-09-27T12:34:34;10.80;99.90
8832;DHT22;4452;50.756;4.472;2022-09-27T12:37:18;10.90;99.90
8832;DHT22;4452;50.756;4.472;2022-09-27T12:40:13;11.10;99.90
8832;DHT22;4452;50.756;4.472;2022-09-27T12:42:49;11.60;99.90
8832;DHT22;4452;50.756;4.472;2022-09-27T12:45:24;12.00;99.90
8832;DHT22;4452;50.756;4.472;2022-09-27T12:50:54;12.30;99.90
8832;DHT22;4452;50.756;4.472;2022-09-27T12:58:56;12.40;99.90
8832;DHT22;4452;50.756;4.472;2022-09-27T13:12:05;11.20;99.90
8832;DHT22;4452;50.756;4.472;2022-09-27T13:14:56;10.70;99.90
8832;DHT22;4452;50.756;4.472;2022-09-27T13:22:57;10.50;99.90
8832;DHT22;4452;50.756;4.472;2022-09-27T13:25:48;10.60;99.90
8832;DHT22;4452;50.756;4.472;2022-09-27T13:31:04;11.10;99.90
8832;DHT22;4452;50.756;4.472;2022-09-27T13:47:00;12.30;99.90
8832;DHT22;4452;50.756;4.472;2022-09-27T13:49:35;12.20;99.90
8832;DHT22;4452;50.756;4.472;2022-09-27T13:52:23;12.10;99.90
8832;DHT22;4452;50.756;4.472;2022-09-27T13:54:52;12.20;99.90
8832;DHT22;4452;50.756;4.472;2022-09-27T13:57:37;12.10;99.90
8832;DHT22;4452;50.756;4.472;2022-09-27T14:00:27;12.00;99.90
8832;DHT22;4452;50.756;4.472;2022-09-27T14:03:06;11.90;99.90
8832;DHT22;4452;50.756;4.472;2022-09-27T14:05:52;12.40;99.90
8832;DHT22;4452;50.756;4.472;2022-09-27T14:08:25;12.70;99.90
8832;DHT22;4452;50.756;4.472;2022-09-27T14:10:54;13.00;99.90
8832;DHT22;4452;50.756;4.472;2022-09-27T14:13:23;13.00;99.90
8832;DHT22;4452;50.756;4.472;2022-09-27T14:15:50;14.00;99.90
8832;DHT22;4452;50.756;4.472;2022-09-27T14:18:16;14.30;99.90
8832;DHT22;4452;50.756;4.472;2022-09-27T14:20:48;14.40;99.90
8832;DHT22;4452;50.756;4.472;2022-09-27T14:23:21;14.00;99.90
8832;DHT22;4452;50.756;4.472;2022-09-27T14:25:48;13.70;99.90
8832;DHT22;4452;50.756;4.472;2022-09-27T14:28:30;13.80;99.90
8832;DHT22;4452;50.756;4.472;2022-09-27T14:31:12;14.40;99.90
8832;DHT22;4452;50.756;4.472;2022-09-27T14:33:39;15.10;99.90
8832;DHT22;4452;50.756;4.472;2022-09-27T14:36:22;15.00;99.90
8832;DHT22;4452;50.756;4.472;2022-09-27T14:39:33;15.20;99.90
8832;DHT22;4452;50.756;4.472;2022-09-27T14:42:15;14.60;99.90
8832;DHT22;4452;50.756;4.472;2022-09-27T14:44:43;14.40;99.90
8832;DHT22;4452;50.756;4.472;2022-09-27T14:47:17;13.90;99.90
8832;DHT22;4452;50.756;4.472;2022-09-27T14:49:47;13.40;99.90
8832;DHT22;4452;50.756;4.472;2022-09-27T14:52:22;12.90;99.90
8832;DHT22;4452;50.756;4.472;2022-09-27T14:57:28;12.50;99.90
8832;DHT22;4452;50.756;4.472;2022-09-27T14:59:58;12.40;99.90
8832;DHT22;4452;50.756;4.472;2022-09-27T15:02:25;12.00;99.90
8832;DHT22;4452;50.756;4.472;2022-09-27T15:04:52;11.40;99.90
8832;DHT22;4452;50.756;4.472;2022-09-27T15:07:19;11.10;99.90
8832;DHT22;4452;50.756;4.472;2022-09-27T15:09:47;11.00;99.90
8832;DHT22;4452;50.756;4.472;2022-09-27T15:12:21;11.00;99.90
8832;DHT22;4452;50.756;4.472;2022-09-27T15:14:49;10.90;99.90
8832;DHT22;4452;50.756;4.472;2022-09-27T15:17:20;10.90;99.90
8832;DHT22;4452;50.756;4.472;2022-09-27T15:20:02;11.10;99.90
8832;DHT22;4452;50.756;4.472;2022-09-27T15:22:34;11.10;99.90
8832;DHT22;4452;50.756;4.472;2022-09-27T15:25:05;11.00;99.90
8832;DHT22;4452;50.756;4.472;2022-09-27T15:27:32;11.10;99.90
8832;DHT22;4452;50.756;4.472;2022-09-27T15:29:57;11.10;99.90
8832;DHT22;4452;50.756;4.472;2022-09-27T15:32:26;11.30;99.90
8832;DHT22;4452;50.756;4.472;2022-09-27T15:34:54;11.40;99.90
8832;DHT22;4452;50.756;4.472;2022-09-27T15:37:27;11.90;99.90
8832;DHT22;4452;50.756;4.472;2022-09-27T15:42:57;14.20;99.90
8832;DHT22;4452;50.756;4.472;2022-09-27T15:45:34;14.30;99.90
8832;DHT22;4452;50.756;4.472;2022-09-27T15:48:28;14.00;99.90
8832;DHT22;4452;50.756;4.472;2022-09-27T15:50:54;14.30;99.90
8832;DHT22;4452;50.756;4.472;2022-09-27T15:55:58;15.40;99.90
8832;DHT22;4452;50.756;4.472;2022-09-27T15:58:24;15.20;99.90
8832;DHT22;4452;50.756;4.472;2022-09-27T16:03:20;15.10;99.90
8832;DHT22;4452;50.756;4.472;2022-09-27T16:05:45;15.40;99.90
8832;DHT22;4452;50.756;4.472;2022-09-27T16:08:11;15.30;99.90
8832;DHT22;4452;50.756;4.472;2022-09-27T16:10:50;14.30;99.90
8832;DHT22;4452;50.756;4.472;2022-09-27T16:13:16;13.60;99.90
8832;DHT22;4452;50.756;4.472;2022-09-27T16:15:41;13.70;99.90
8832;DHT22;4452;50.756;4.472;2022-09-27T16:18:09;13.70;99.90
8832;DHT22;4452;50.756;4.472;2022-09-27T16:20:35;13.80;99.90
8832;DHT22;4452;50.756;4.472;2022-09-27T16:23:00;13.70;99.90
8832;DHT22;4452;50.756;4.472;2022-09-27T16:25:26;13.40;99.90
8832;DHT22;4452;50.756;4.472;2022-09-27T16:27:56;13.10;99.90
8832;DHT22;4452;50.756;4.472;2022-09-27T16:30:23;13.00;99.90
8832;DHT22;4452;50.756;4.472;2022-09-27T16:32:48;12.70;99.90
8832;DHT22;4452;50.756;4.472;2022-09-27T16:35:16;12.40;99.90
8832;DHT22;4452;50.756;4.472;2022-09-27T16:37:42;12.30;99.90
8832;DHT22;4452;50.756;4.472;2022-09-27T16:40:09;12.30;99.90
8832;DHT22;4452;50.756;4.472;2022-09-27T16:42:36;12.30;99.90
8832;DHT22;4452;50.756;4.472;2022-09-27T16:45:03;12.30;99.90
8832;DHT22;4452;50.756;4.472;2022-09-27T16:47:30;12.10;99.90
8832;DHT22;4452;50.756;4.472;2022-09-27T16:49:56;11.90;99.90
8832;DHT22;4452;50.756;4.472;2022-09-27T16:52:40;11.90;99.90
8832;DHT22;4452;50.756;4.472;2022-09-27T16:55:12;11.90;99.90
8832;DHT22;4452;50.756;4.472;2022-09-27T16:57:39;11.90;99.90
8832;DHT22;4452;50.756;4.472;2022-09-27T17:00:05;11.90;99.90
8832;DHT22;4452;50.756;4.472;2022-09-27T17:02:31;11.80;99.90
8832;DHT22;4452;50.756;4.472;2022-09-27T17:04:57;11.60;99.90
8832;DHT22;4452;50.756;4.472;2022-09-27T17:07:23;11.50;99.90
8832;DHT22;4452;50.756;4.472;2022-09-27T17:09:49;11.50;99.90
8832;DHT22;4452;50.756;4.472;2022-09-27T17:12:15;11.50;99.90
8832;DHT22;4452;50.756;4.472;2022-09-27T17:14:41;11.40;99.90
8832;DHT22;4452;50.756;4.472;2022-09-27T17:17:06;11.40;99.90
8832;DHT22;4452;50.756;4.472;2022-09-27T17:19:32;11.30;99.90
8832;DHT22;4452;50.756;4.472;2022-09-27T17:21:58;11.30;99.90
8832;DHT22;4452;50.756;4.472;2022-09-27T17:24:24;11.40;99.90
8832;DHT22;4452;50.756;4.472;2022-09-27T17:26:50;11.40;99.90
8832;DHT22;4452;50.756;4.472;2022-09-27T17:29:16;11.30;99.90
8832;DHT22;4452;50.756;4.472;2022-09-27T17:31:42;11.30;99.90
8832;DHT22;4452;50.756;4.472;2022-09-27T17:34:10;11.30;99.90
8832;DHT22;4452;50.756;4.472;2022-09-27T17:36:37;11.30;99.90
8832;DHT22;4452;50.756;4.472;2022-09-27T17:39:06;11.30;99.90
8832;DHT22;4452;50.756;4.472;2022-09-27T17:41:34;11.40;99.90
8832;DHT22;4452;50.756;4.472;2022-09-27T17:44:01;11.30;99.90
8832;DHT22;4452;50.756;4.472;2022-09-27T17:46:32;11.30;99.90
8832;DHT22;4452;50.756;4.472;2022-09-27T17:48:59;11.20;99.90
8832;DHT22;4452;50.756;4.472;2022-09-27T17:51:46;11.30;99.90
8832;DHT22;4452;50.756;4.472;2022-09-27T17:54:12;11.20;99.90
8832;DHT22;4452;50.756;4.472;2022-09-27T17:56:40;11.10;99.90
8832;DHT22;4452;50.756;4.472;2022-09-27T17:59:07;11.30;99.90
8832;DHT22;4452;50.756;4.472;2022-09-27T18:01:33;11.00;99.90
8832;DHT22;4452;50.756;4.472;2022-09-27T18:04:02;10.80;99.90
8832;DHT22;4452;50.756;4.472;2022-09-27T18:06:29;10.70;99.90
8832;DHT22;4452;50.756;4.472;2022-09-27T18:08:57;10.50;99.90
8832;DHT22;4452;50.756;4.472;2022-09-27T18:11:26;10.40;99.90
8832;DHT22;4452;50.756;4.472;2022-09-27T18:13:55;9.90;99.90
8832;DHT22;4452;50.756;4.472;2022-09-27T18:16:27;9.80;99.90
8832;DHT22;4452;50.756;4.472;2022-09-27T18:18:57;9.70;99.90
8832;DHT22;4452;50.756;4.472;2022-09-27T18:21:25;9.90;99.90
8832;DHT22;4452;50.756;4.472;2022-09-27T18:23:53;9.90;99.90
8832;DHT22;4452;50.756;4.472;2022-09-27T18:26:21;9.90;99.90
8832;DHT22;4452;50.756;4.472;2022-09-27T18:28:50;9.90;99.90
8832;DHT22;4452;50.756;4.472;2022-09-27T18:31:17;9.90;99.90
8832;DHT22;4452;50.756;4.472;2022-09-27T18:33:43;10.00;99.90
8832;DHT22;4452;50.756;4.472;2022-09-27T18:36:14;10.00;99.90
8832;DHT22;4452;50.756;4.472;2022-09-27T18:38:41;10.10;99.90
8832;DHT22;4452;50.756;4.472;2022-09-27T18:41:12;10.00;99.90
8832;DHT22;4452;50.756;4.472;2022-09-27T18:43:39;10.00;99.90
8832;DHT22;4452;50.756;4.472;2022-09-27T18:46:10;10.10;99.90
8832;DHT22;4452;50.756;4.472;2022-09-27T18:48:37;10.10;99.90
8832;DHT22;4452;50.756;4.472;2022-09-27T18:51:11;10.00;99.90
8832;DHT22;4452;50.756;4.472;2022-09-27T18:53:38;10.00;99.90
8832;DHT22;4452;50.756;4.472;2022-09-27T18:56:08;9.90;99.90
8832;DHT22;4452;50.756;4.472;2022-09-27T18:58:35;9.90;99.90
8832;DHT22;4452;50.756;4.472;2022-09-27T19:01:02;10.00;99.90
8832;DHT22;4452;50.756;4.472;2022-09-27T19:03:29;10.10;99.90